Time;durP1;ratioP1;P1;durP2;ratioP2;P2;SDS_P1;SDS_P2;PMS_P1;PMS_P2;Temp;Humidity;BMP_temperature;BMP_pressure;BME280_temperature;BME280_humidity;BME280_pressure;Samples;Min_cycle;Max_cycle;Signal;HPM_P1;HPM_P2
2022/04/19 00:01:26;;;;;;;1.40;1.10;;;;;;;6.29;56.02;101707.72;5030603;28;20037;-76
2022/04/19 00:03:51;;;;;;;1.35;1.00;;;;;;;6.39;56.51;101706.34;5017162;28;20065;-75
2022/04/19 00:06:17;;;;;;;2.97;1.42;;;;;;;6.38;56.03;101712.84;5015034;28;20037;-75
2022/04/19 00:08:43;;;;;;;3.20;1.40;;;;;;;6.34;55.70;101716.03;5016053;28;20452;-75
2022/04/19 00:11:08;;;;;;;1.33;1.02;;;;;;;6.34;56.18;101715.22;5027468;28;20106;-75
2022/04/19 00:13:34;;;;;;;1.60;1.40;;;;;;;6.35;56.06;101717.72;5023934;28;20048;-76
2022/04/19 00:16:00;;;;;;;1.50;1.27;;;;;;;6.39;55.61;101712.63;5012606;28;20034;-76
2022/04/19 00:18:26;;;;;;;5.18;2.13;;;;;;;6.44;55.72;101722.88;5012623;28;20037;-76
2022/04/19 00:20:52;;;;;;;4.82;1.90;;;;;;;6.41;56.15;101720.56;5030397;28;20065;-76
2022/04/19 00:23:18;;;;;;;4.78;2.28;;;;;;;6.27;56.70;101728.91;5017081;28;20041;-76
2022/04/19 00:25:48;;;;;;;4.57;2.10;;;;;;;6.14;57.59;101718.16;5027914;28;20055;-76
2022/04/19 00:28:14;;;;;;;6.15;2.03;;;;;;;5.99;57.69;101731.28;5028470;28;20068;-76
2022/04/19 00:30:41;;;;;;;3.60;1.92;;;;;;;5.85;58.28;101732.44;5031546;28;20104;-76
2022/04/19 00:33:08;;;;;;;3.88;1.70;;;;;;;5.79;58.64;101728.72;5018002;28;20073;-74
2022/04/19 00:35:36;;;;;;;4.55;2.08;;;;;;;5.78;58.83;101727.06;5024891;28;20531;-74
2022/04/19 00:38:02;;;;;;;3.58;1.58;;;;;;;5.74;58.46;101734.00;5028143;28;20045;-74
2022/04/19 00:40:27;;;;;;;1.92;1.55;;;;;;;5.68;59.13;101733.00;5014918;28;21925;-74
2022/04/19 00:42:56;;;;;;;3.10;1.90;;;;;;;5.58;59.38;101735.41;5024040;28;20045;-74
2022/04/19 00:45:22;;;;;;;2.72;1.58;;;;;;;5.47;59.60;101736.09;5000650;28;20077;-75
2022/04/19 00:47:49;;;;;;;2.60;1.67;;;;;;;5.38;59.50;101740.13;5044344;28;20037;-75
2022/04/19 00:50:15;;;;;;;3.08;1.58;;;;;;;5.33;59.95;101737.22;5024659;28;20045;-74
2022/04/19 00:52:43;;;;;;;3.35;1.50;;;;;;;5.29;59.41;101736.84;5042625;28;20408;-74
2022/04/19 00:55:10;;;;;;;2.88;1.70;;;;;;;5.35;60.02;101737.84;5017920;28;20050;-75
2022/04/19 00:57:41;;;;;;;4.10;1.42;;;;;;;5.37;59.99;101738.47;5025669;28;20044;-75
2022/04/19 01:00:12;;;;;;;4.03;1.50;;;;;;;5.33;59.67;101732.63;5045527;28;20037;-77
2022/04/19 01:02:41;;;;;;;3.42;1.38;;;;;;;5.42;60.22;101736.75;5040032;28;20137;-74
2022/04/19 01:05:09;;;;;;;2.00;1.35;;;;;;;5.50;60.11;101734.81;5014371;28;20613;-76
2022/04/19 01:07:38;;;;;;;2.65;1.38;;;;;;;5.49;60.02;101733.16;5036297;28;20117;-75
2022/04/19 01:10:07;;;;;;;2.22;1.40;;;;;;;5.49;60.36;101717.66;5014117;28;20080;-74
2022/04/19 01:15:19;;;;;;;1.95;1.33;;;;;;;5.55;59.73;101724.09;5033355;28;20053;-74
2022/04/19 01:18:20;;;;;;;1.52;1.35;;;;;;;5.58;59.64;101729.13;5024528;28;20095;-74
2022/04/19 01:20:48;;;;;;;1.88;1.20;;;;;;;5.62;59.27;101720.28;4994243;28;20037;-75
2022/04/19 01:23:20;;;;;;;1.60;1.08;;;;;;;5.55;59.76;101724.09;5028421;28;20034;-74
2022/04/19 01:25:46;;;;;;;2.70;1.40;;;;;;;5.55;59.87;101724.09;5026980;28;20069;-74
2022/04/19 01:28:12;;;;;;;2.15;1.30;;;;;;;5.50;60.23;101719.31;5026335;28;20133;-74
2022/04/19 01:30:42;;;;;;;3.15;1.20;;;;;;;5.57;59.94;101725.56;5016367;28;20486;-74
2022/04/19 01:33:08;;;;;;;3.00;0.90;;;;;;;5.66;59.61;101729.66;5025360;28;20087;-74
2022/04/19 01:35:34;;;;;;;1.50;1.10;;;;;;;5.62;59.64;101728.44;5027586;28;20037;-75
2022/04/19 01:38:00;;;;;;;2.58;1.63;;;;;;;5.54;59.58;101731.41;5021807;28;20066;-74
2022/04/19 01:40:30;;;;;;;1.23;1.13;;;;;;;5.52;59.99;101733.53;5015934;28;20138;-74
2022/04/19 01:43:01;;;;;;;2.30;1.40;;;;;;;5.44;60.20;101737.38;5038389;28;20142;-74
2022/04/19 01:45:38;;;;;;;1.77;1.25;;;;;;;5.45;60.51;101730.03;5017736;28;20132;-75
2022/04/19 01:48:09;;;;;;;1.88;1.15;;;;;;;5.49;60.13;101736.69;5023361;28;20531;-74
2022/04/19 01:50:37;;;;;;;2.33;1.00;;;;;;;5.44;60.79;101742.81;5034428;28;20038;-75
2022/04/19 01:53:03;;;;;;;1.35;0.82;;;;;;;5.40;60.65;101735.31;5029845;28;20038;-74
2022/04/19 01:55:31;;;;;;;2.45;1.05;;;;;;;5.36;60.62;101731.34;5035051;28;20046;-75
2022/04/19 01:58:01;;;;;;;2.97;1.08;;;;;;;5.36;61.11;101734.06;5027771;28;20098;-74
2022/04/19 02:00:37;;;;;;;1.23;1.05;;;;;;;5.36;60.41;101726.75;5019089;28;20470;-74
2022/04/19 02:03:04;;;;;;;1.17;1.00;;;;;;;5.42;60.79;101733.22;5035359;28;20037;-74
2022/04/19 02:05:30;;;;;;;1.40;1.08;;;;;;;5.52;60.46;101728.09;5044632;28;20090;-74
2022/04/19 02:08:00;;;;;;;2.58;1.33;;;;;;;5.51;60.78;101739.19;5046417;28;20041;-74
2022/04/19 02:10:27;;;;;;;2.15;1.35;;;;;;;5.47;60.60;101733.38;5038789;28;20045;-74
2022/04/19 02:12:53;;;;;;;1.10;1.00;;;;;;;5.46;60.54;101731.72;5026073;28;20050;-74
2022/04/19 02:15:31;;;;;;;1.35;1.00;;;;;;;5.45;60.54;101741.75;5017071;28;20684;-75
2022/04/19 02:18:02;;;;;;;3.33;1.10;;;;;;;5.49;60.32;101736.69;5045980;28;20069;-74
2022/04/19 02:20:28;;;;;;;2.25;0.98;;;;;;;5.52;60.23;101743.59;5013664;28;20038;-74
2022/04/19 02:22:53;;;;;;;1.45;1.20;;;;;;;5.61;60.51;101731.38;5017615;28;20104;-74
2022/04/19 02:25:19;;;;;;;1.08;0.98;;;;;;;5.69;60.18;101740.09;5013092;28;20042;-74
2022/04/19 02:27:45;;;;;;;0.98;0.90;;;;;;;5.78;59.54;101742.56;5055855;28;20042;-74
2022/04/19 02:30:17;;;;;;;1.45;0.95;;;;;;;5.78;59.92;101728.94;4996881;28;20045;-74
2022/04/19 02:32:48;;;;;;;1.20;1.05;;;;;;;5.88;59.61;101737.44;5039837;28;20041;-75
2022/04/19 02:35:17;;;;;;;1.70;0.88;;;;;;;6.02;58.91;101736.28;5048031;28;20041;-75
2022/04/19 02:37:53;;;;;;;;;;;;;;;5.99;59.43;101736.75;5020055;28;20700;-74
2022/04/19 02:40:24;;;;;;;2.78;1.20;;;;;;;6.01;58.83;101740.06;5052143;28;19998;-75
2022/04/19 02:42:54;;;;;;;2.05;1.17;;;;;;;6.08;59.34;101737.31;5045899;28;20629;-74
2022/04/19 02:45:24;;;;;;;1.10;0.90;;;;;;;6.14;59.34;101742.69;5033872;28;20038;-75
2022/04/19 02:48:19;;;;;;;1.52;1.27;;;;;;;6.11;58.76;101737.69;5029522;28;20044;-77
2022/04/19 02:50:49;;;;;;;1.67;1.08;;;;;;;6.19;58.93;101742.81;5006151;28;20077;-75
2022/04/19 02:53:15;;;;;;;4.00;1.10;;;;;;;6.20;58.77;101751.84;5018609;28;20069;-74
2022/04/19 02:55:42;;;;;;;1.65;1.30;;;;;;;6.15;58.66;101770.75;5030916;28;20570;-75
2022/04/19 02:58:08;;;;;;;3.42;1.40;;;;;;;6.07;59.03;101752.78;5044339;28;20086;-75
2022/04/19 03:00:36;;;;;;;1.85;1.30;;;;;;;6.05;58.56;101758.47;5031112;28;20048;-75
2022/04/19 03:03:02;;;;;;;1.55;1.20;;;;;;;5.96;58.67;101756.28;5023204;28;20451;-74
2022/04/19 03:05:29;;;;;;;1.20;0.98;;;;;;;5.93;59.00;101767.63;5018211;28;20102;-74
2022/04/19 03:07:56;;;;;;;6.07;1.52;;;;;;;5.89;59.00;101759.00;5035319;28;20508;-77
2022/04/19 03:10:22;;;;;;;4.05;1.85;;;;;;;5.92;59.13;101763.22;5049540;28;20037;-75
2022/04/19 03:12:51;;;;;;;1.92;1.17;;;;;;;5.86;59.48;101764.06;5031074;28;20107;-74
2022/04/19 03:15:20;;;;;;;3.58;1.33;;;;;;;5.88;59.57;101767.41;5045727;28;20045;-75
2022/04/19 03:17:47;;;;;;;2.15;1.13;;;;;;;5.85;59.42;101757.78;5027729;28;20416;-75
2022/04/19 03:20:15;;;;;;;1.88;1.30;;;;;;;5.83;59.56;101754.44;5026560;28;20045;-75
2022/04/19 03:28:17;;;;;;;3.67;1.50;;;;;;;5.87;59.77;101763.00;5047366;28;20184;-75
2022/04/19 03:30:43;;;;;;;3.15;1.52;;;;;;;5.95;59.55;101777.22;5041715;28;20038;-74
2022/04/19 03:33:09;;;;;;;2.45;1.23;;;;;;;5.98;59.55;101775.94;5045298;28;20045;-74
2022/04/19 03:35:36;;;;;;;4.88;1.52;;;;;;;5.90;59.40;101770.75;5023712;28;20132;-76
2022/04/19 03:38:06;;;;;;;4.55;1.83;;;;;;;5.83;59.85;101768.06;5009658;28;20497;-74
2022/04/19 03:40:33;;;;;;;2.00;1.48;;;;;;;5.83;59.65;101778.13;5026405;28;20160;-74
2022/04/19 03:43:04;;;;;;;5.18;1.98;;;;;;;5.84;60.18;101777.91;5022320;28;20130;-74
2022/04/19 03:45:30;;;;;;;2.00;1.30;;;;;;;5.78;59.91;101783.41;5017143;28;20041;-74
2022/04/19 03:47:56;;;;;;;1.73;1.10;;;;;;;5.79;60.38;101779.63;5025148;28;20167;-76
2022/04/19 03:50:22;;;;;;;1.85;1.20;;;;;;;5.83;59.95;101791.75;5017469;28;20043;-74
2022/04/19 03:52:50;;;;;;;6.90;1.40;;;;;;;5.89;59.33;101788.13;4995447;28;20560;-74
2022/04/19 03:55:16;;;;;;;2.50;1.35;;;;;;;5.88;59.75;101786.47;5027219;28;20068;-74
2022/04/19 03:57:43;;;;;;;5.13;1.25;;;;;;;5.83;59.98;101795.31;5019284;28;20504;-75
2022/04/19 04:00:10;;;;;;;2.30;1.13;;;;;;;5.85;60.00;101781.47;5044921;28;20046;-76
2022/04/19 04:02:42;;;;;;;6.25;1.55;;;;;;;5.89;59.68;101799.03;5012739;28;20049;-74
2022/04/19 04:05:13;;;;;;;2.22;1.20;;;;;;;5.88;59.64;101797.34;5035836;28;20037;-76
2022/04/19 04:07:40;;;;;;;2.20;1.40;;;;;;;5.86;59.92;101800.31;5011195;28;20103;-76
2022/04/19 04:10:07;;;;;;;2.42;1.33;;;;;;;5.85;59.95;101803.25;5025487;28;20029;-75
2022/04/19 04:12:34;;;;;;;3.15;1.50;;;;;;;5.95;60.09;101798.19;5038346;28;20041;-75
2022/04/19 04:15:01;;;;;;;6.20;1.58;;;;;;;6.01;59.95;101808.19;5029533;28;20104;-75
2022/04/19 04:17:27;;;;;;;2.47;1.60;;;;;;;6.17;59.44;101802.19;5008892;28;20037;-75
2022/04/19 04:19:53;;;;;;;4.63;1.67;;;;;;;6.37;59.03;101798.44;5047424;28;20484;-75
2022/04/19 04:22:21;;;;;;;6.03;1.63;;;;;;;6.51;59.18;101802.69;5041080;28;20061;-75
2022/04/19 04:24:46;;;;;;;5.07;1.95;;;;;;;6.61;58.58;101797.56;5014340;28;20404;-75
2022/04/19 04:27:12;;;;;;;4.03;1.58;;;;;;;6.64;58.45;101803.41;5047316;28;20073;-75
2022/04/19 04:29:39;;;;;;;4.55;2.05;;;;;;;6.63;58.07;101804.47;5047061;28;20037;-75
2022/04/19 04:32:05;;;;;;;9.15;2.05;;;;;;;6.69;57.89;101810.88;5032586;28;20049;-75
2022/04/19 04:34:31;;;;;;;2.22;1.27;;;;;;;6.64;57.88;101802.56;5030721;28;20095;-75
2022/04/19 04:36:58;;;;;;;4.57;1.65;;;;;;;6.68;57.22;101798.31;5014299;28;20053;-75
2022/04/19 04:39:24;;;;;;;3.22;1.55;;;;;;;6.72;57.95;101807.69;5013626;28;20037;-75
2022/04/19 04:42:13;;;;;;;12.80;2.33;;;;;;;6.74;57.84;101818.38;5043739;28;20052;-76
2022/04/19 04:44:39;;;;;;;3.13;2.05;;;;;;;6.92;57.77;101813.75;5047156;28;20041;-75
2022/04/19 04:49:49;;;;;;;10.38;2.50;;;;;;;7.12;57.39;101818.16;5010508;28;20047;-75
2022/04/19 04:52:19;;;;;;;7.80;2.38;;;;;;;7.41;57.68;101819.22;5043426;28;20496;-76
2022/04/19 04:54:45;;;;;;;4.63;1.83;;;;;;;7.47;56.58;101827.34;5026929;28;20133;-76
2022/04/19 04:57:18;;;;;;;13.38;2.17;;;;;;;7.49;56.67;101832.56;5027112;28;20037;-75
2022/04/19 04:59:45;;;;;;;4.30;1.52;;;;;;;7.40;56.36;101845.69;5011904;28;20049;-75
2022/04/19 05:02:11;;;;;;;4.03;1.67;;;;;;;7.13;57.33;101841.66;5030144;28;20044;-75
2022/04/19 05:04:38;;;;;;;8.27;2.00;;;;;;;6.99;57.45;101845.59;5045499;28;20041;-75
2022/04/19 05:07:04;;;;;;;5.75;2.10;;;;;;;6.89;57.29;101848.84;5030246;28;20554;-75
2022/04/19 05:09:37;;;;;;;11.30;2.20;;;;;;;6.66;57.96;101852.25;5027877;28;20186;-75
2022/04/19 05:12:03;;;;;;;12.10;1.50;;;;;;;6.47;57.78;101843.22;5028168;28;20500;-75
2022/04/19 05:14:31;;;;;;;7.15;1.20;;;;;;;6.34;58.39;101843.34;5046115;28;20099;-75
2022/04/19 05:16:56;;;;;;;3.92;1.88;;;;;;;6.25;58.90;101842.78;5032873;28;20482;-75
2022/04/19 05:19:22;;;;;;;3.67;1.38;;;;;;;6.20;59.32;101853.50;5031478;28;20034;-75
2022/04/19 05:21:48;;;;;;;10.80;1.60;;;;;;;6.23;59.87;101855.78;5020034;28;20041;-76
2022/04/19 05:24:13;;;;;;;3.90;1.65;;;;;;;6.26;59.01;101866.28;5026224;28;20408;-75
2022/04/19 05:26:39;;;;;;;3.78;2.17;;;;;;;6.23;59.54;101854.94;5044514;28;20055;-76
2022/04/19 05:29:06;;;;;;;4.05;1.55;;;;;;;6.22;59.07;101848.66;5028724;28;20041;-77
2022/04/19 05:31:31;;;;;;;3.65;1.50;;;;;;;6.24;59.42;101864.78;5033807;28;20083;-75
2022/04/19 05:33:57;;;;;;;3.55;1.73;;;;;;;6.31;58.99;101862.88;5029204;28;20046;-75
2022/04/19 05:36:23;;;;;;;5.63;1.73;;;;;;;6.45;59.62;101852.69;5045015;28;20044;-76
2022/04/19 05:38:52;;;;;;;1.63;1.25;;;;;;;6.53;58.51;101850.50;5029459;28;20037;-75
2022/04/19 05:41:20;;;;;;;6.72;1.88;;;;;;;6.57;58.36;101857.16;5045535;28;20044;-74
2022/04/19 05:43:47;;;;;;;9.02;2.20;;;;;;;6.70;57.93;101860.81;5029093;28;20100;-75
2022/04/19 05:46:16;;;;;;;12.48;2.38;;;;;;;6.81;58.42;101846.44;5026859;28;20496;-75
2022/04/19 05:48:41;;;;;;;7.05;2.47;;;;;;;6.93;57.52;101844.59;5033605;28;20045;-76
2022/04/19 05:51:07;;;;;;;6.85;2.22;;;;;;;7.08;57.76;101845.06;5015211;28;20037;-75
2022/04/19 05:53:33;;;;;;;5.70;1.63;;;;;;;7.18;57.33;101847.25;5034116;28;20049;-76
2022/04/19 05:55:59;;;;;;;4.75;1.90;;;;;;;7.28;56.63;101854.91;5027911;28;20439;-76
2022/04/19 05:58:25;;;;;;;10.30;1.85;;;;;;;7.31;55.96;101866.22;5033209;28;20045;-76
2022/04/19 06:00:50;;;;;;;5.68;2.13;;;;;;;7.43;56.19;101860.78;5032973;28;20111;-76
2022/04/19 06:06:00;;;;;;;6.68;1.63;;;;;;;7.77;55.51;101851.06;5069775;28;20514;-75
2022/04/19 06:08:26;;;;;;;8.07;2.17;;;;;;;7.95;54.65;101861.09;5036975;28;20087;-75
2022/04/19 06:11:02;;;;;;;11.50;2.33;;;;;;;8.02;54.68;101865.41;5053362;28;20037;-76
2022/04/19 06:13:28;;;;;;;8.73;1.90;;;;;;;7.93;54.08;101855.88;5036995;28;20053;-76
2022/04/19 06:15:54;;;;;;;9.27;1.92;;;;;;;7.99;54.60;101859.59;5069126;28;20071;-75
2022/04/19 06:18:21;;;;;;;3.95;2.00;;;;;;;8.07;54.02;101861.97;5069674;28;20067;-75
2022/04/19 06:20:54;;;;;;;8.20;1.77;;;;;;;8.25;53.91;101858.31;5036248;28;20072;-74
2022/04/19 06:23:21;;;;;;;9.40;2.08;;;;;;;8.59;53.23;101849.31;5050694;28;20087;-74
2022/04/19 06:25:47;;;;;;;7.68;2.30;;;;;;;8.99;52.54;101849.38;5049958;28;20123;-74
2022/04/19 06:28:12;;;;;;;5.78;1.95;;;;;;;9.26;52.02;101846.97;5016629;28;20419;-75
2022/04/19 06:30:58;;;;;;;12.80;2.20;;;;;;;9.53;51.44;101840.88;5034382;28;20073;-75
2022/04/19 06:33:24;;;;;;;7.95;2.63;;;;;;;9.88;50.47;101854.41;5032969;28;20110;-75
2022/04/19 06:35:49;;;;;;;8.43;2.35;;;;;;;9.96;49.20;101865.00;5033044;28;20511;-75
2022/04/19 06:38:16;;;;;;;6.85;2.33;;;;;;;10.03;49.00;101865.66;5034586;28;20423;-75
2022/04/19 06:40:41;;;;;;;5.40;2.25;;;;;;;10.15;48.58;101860.13;5052916;28;20496;-74
2022/04/19 06:43:07;;;;;;;2.60;1.20;;;;;;;10.22;47.85;101858.06;5054060;28;20087;-74
2022/04/19 06:45:51;;;;;;;10.68;1.90;;;;;;;10.33;47.53;101870.03;5069026;28;20099;-74
2022/04/19 06:48:24;;;;;;;5.13;1.40;;;;;;;10.31;46.78;101873.03;5069282;28;20064;-74
2022/04/19 06:50:50;;;;;;;8.43;1.50;;;;;;;10.32;46.38;101874.69;5052669;28;20072;-74
2022/04/19 06:53:17;;;;;;;3.25;1.70;;;;;;;10.30;46.54;101857.66;5048467;28;20069;-74
2022/04/19 06:55:57;;;;;;;4.05;1.70;;;;;;;10.29;46.70;101872.47;5048897;28;20061;-74
2022/04/19 06:58:22;;;;;;;5.90;2.03;;;;;;;10.53;46.69;101871.19;5032527;28;20087;-73
2022/04/19 07:00:49;;;;;;;3.88;1.52;;;;;;;10.64;45.61;101868.63;5033585;28;20038;-74
2022/04/19 07:03:15;;;;;;;5.03;1.75;;;;;;;10.70;45.63;101856.63;5031380;28;20456;-74
2022/04/19 07:05:59;;;;;;;6.07;1.80;;;;;;;10.81;45.74;101873.00;5033461;28;20626;-74
2022/04/19 07:08:25;;;;;;;3.53;1.40;;;;;;;10.83;45.01;101868.09;5016169;28;20115;-74
2022/04/19 07:10:51;;;;;;;2.20;1.25;;;;;;;10.81;44.42;101872.16;5032131;28;20049;-75
2022/04/19 07:13:49;;;;;;;2.20;1.08;;;;;;;10.67;44.18;101871.69;5053870;28;20056;-75
2022/04/19 07:16:35;;;;;;;3.90;1.30;;;;;;;10.68;45.12;101886.25;5033106;28;20056;-75
2022/04/19 07:19:01;;;;;;;1.90;0.82;;;;;;;10.71;44.98;101874.75;5031960;28;20077;-75
2022/04/19 07:26:55;;;;;;;1.33;1.00;;;;;;;10.71;43.81;101892.06;5064858;28;20085;-75
2022/04/19 07:29:22;;;;;;;0.77;0.73;;;;;;;10.83;43.11;101879.06;5031883;28;20033;-75
2022/04/19 07:31:51;;;;;;;1.15;1.02;;;;;;;10.76;43.83;101880.31;5048433;28;20076;-75
2022/04/19 07:34:39;;;;;;;2.78;1.20;;;;;;;10.95;43.88;101889.13;5032609;28;20049;-75
2022/04/19 07:37:05;;;;;;;2.20;0.75;;;;;;;11.10;42.88;101878.31;5024971;28;20049;-75
2022/04/19 07:39:33;;;;;;;1.10;0.70;;;;;;;11.05;42.98;101884.59;5027150;28;20646;-75
2022/04/19 07:42:00;;;;;;;7.25;0.93;;;;;;;11.11;42.70;101883.59;4998963;28;20049;-74
2022/04/19 07:44:29;;;;;;;1.92;0.70;;;;;;;11.17;42.78;101884.47;5031690;28;20531;-75
2022/04/19 07:46:55;;;;;;;3.95;0.88;;;;;;;11.36;42.81;101874.00;5031671;28;20041;-75
2022/04/19 07:49:20;;;;;;;2.25;0.70;;;;;;;11.56;42.32;101873.41;5031611;28;20087;-75
2022/04/19 07:51:46;;;;;;;1.00;0.90;;;;;;;11.72;41.77;101880.72;5031772;28;20044;-75
2022/04/19 07:54:12;;;;;;;0.80;0.80;;;;;;;11.93;42.38;101879.88;5062035;28;20060;-75
2022/04/19 07:56:38;;;;;;;1.20;0.70;;;;;;;11.93;41.85;101890.06;5049735;28;20059;-76
2022/04/19 07:59:03;;;;;;;1.80;0.85;;;;;;;11.62;41.71;101905.34;5042928;28;20103;-75
2022/04/19 08:01:29;;;;;;;1.00;0.70;;;;;;;11.41;42.17;101893.28;5047243;28;20124;-75
2022/04/19 08:03:55;;;;;;;1.92;0.75;;;;;;;11.26;42.68;101891.19;5030847;28;20037;-75
2022/04/19 08:06:22;;;;;;;0.70;0.70;;;;;;;11.23;42.89;101896.34;5031169;28;20044;-75
2022/04/19 08:08:48;;;;;;;2.97;0.82;;;;;;;11.05;43.79;101892.00;5048008;28;20091;-76
2022/04/19 08:11:13;;;;;;;0.93;0.57;;;;;;;10.93;43.33;101889.34;5031340;28;20045;-77
2022/04/19 08:13:40;;;;;;;4.43;1.25;;;;;;;10.92;44.12;101897.84;5027529;28;20038;-74
2022/04/19 08:16:06;;;;;;;1.40;1.05;;;;;;;11.22;43.62;101883.69;5011537;28;20038;-75
2022/04/19 08:18:31;;;;;;;1.80;0.95;;;;;;;11.63;43.25;101887.78;5012659;28;20111;-76
2022/04/19 08:20:58;;;;;;;1.17;1.08;;;;;;;11.62;42.51;101884.19;5011076;28;20033;-76
2022/04/19 08:23:23;;;;;;;2.10;0.80;;;;;;;11.55;43.38;101880.00;5032066;28;20052;-76
2022/04/19 08:25:58;;;;;;;3.20;0.80;;;;;;;11.58;43.17;101882.22;5044122;28;20459;-74
2022/04/19 08:28:24;;;;;;;0.60;0.60;;;;;;;11.60;42.26;101886.38;5014135;28;20045;-74
2022/04/19 08:30:49;;;;;;;1.88;0.68;;;;;;;11.78;42.86;101883.31;5029368;28;20099;-75
2022/04/19 08:33:21;;;;;;;3.55;1.00;;;;;;;12.06;41.55;101881.38;5044180;28;20089;-75
2022/04/19 08:35:46;;;;;;;3.03;0.90;;;;;;;12.64;40.96;101886.00;5032183;28;20530;-75
2022/04/19 08:38:12;;;;;;;1.13;0.65;;;;;;;13.02;40.11;101897.84;5031550;28;20041;-75
2022/04/19 08:40:38;;;;;;;0.65;0.63;;;;;;;13.29;39.71;101878.41;5030372;28;20033;-75
2022/04/19 08:43:05;;;;;;;0.70;0.70;;;;;;;13.50;39.30;101880.16;5031543;28;20069;-75
2022/04/19 08:45:31;;;;;;;2.80;0.65;;;;;;;13.52;38.95;101886.22;5030684;28;20125;-75
2022/04/19 08:47:58;;;;;;;2.08;0.77;;;;;;;13.94;38.66;101876.13;5030701;28;20140;-75
2022/04/19 08:50:24;;;;;;;0.47;0.40;;;;;;;14.30;37.32;101875.06;5030771;28;20037;-75
2022/04/19 08:57:29;;;;;;;0.80;0.80;;;;;;;14.09;37.52;101868.69;5031587;28;20044;-75
2022/04/19 08:58:20;;;;;;;0.60;0.60;;;;;;;14.60;36.67;101871.50;5011932;28;20034;-75
2022/04/19 09:00:45;;;;;;;0.90;0.68;;;;;;;14.51;37.08;101870.38;5035833;28;20090;-75
2022/04/19 09:03:11;;;;;;;0.50;0.50;;;;;;;14.35;36.39;101877.81;5031563;28;20048;-74
2022/04/19 09:05:49;;;;;;;3.60;0.98;;;;;;;14.24;36.54;101876.16;5030250;28;20033;-75
2022/04/19 09:08:15;;;;;;;0.95;0.90;;;;;;;14.13;37.04;101874.50;5013511;28;20137;-75
2022/04/19 09:10:40;;;;;;;1.95;0.70;;;;;;;14.45;37.20;101861.28;5030061;28;20480;-74
2022/04/19 09:13:11;;;;;;;1.92;0.80;;;;;;;14.72;36.59;101855.44;5029771;28;20041;-75
2022/04/19 09:15:38;;;;;;;1.15;0.80;;;;;;;15.09;35.95;101863.34;5031075;28;20508;-74
2022/04/19 09:18:05;;;;;;;0.98;0.70;;;;;;;15.14;34.98;101867.22;5030931;28;20033;-74
2022/04/19 09:20:31;;;;;;;0.68;0.68;;;;;;;14.63;36.74;101861.81;5029783;28;20523;-74
2022/04/19 09:23:05;;;;;;;2.22;0.80;;;;;;;14.09;36.96;101865.13;5030014;28;20042;-74
2022/04/19 09:25:32;;;;;;;1.73;0.60;;;;;;;12.84;38.06;101871.56;5029601;28;20060;-72
2022/04/19 09:27:59;;;;;;;2.38;1.10;;;;;;;12.14;40.01;101875.41;5032097;28;20041;-73
2022/04/19 09:30:37;;;;;;;1.95;0.90;;;;;;;11.53;41.03;101866.50;5024746;28;20124;-72
2022/04/19 09:33:08;;;;;;;2.92;0.70;;;;;;;10.75;42.81;101868.50;5025524;28;20049;-72
2022/04/19 09:35:36;;;;;;;2.25;0.60;;;;;;;10.35;43.34;101870.63;5038638;28;20044;-72
2022/04/19 09:38:07;;;;;;;7.35;0.70;;;;;;;10.31;44.24;101883.19;5046292;28;20041;-72
2022/04/19 09:40:34;;;;;;;2.20;0.47;;;;;;;10.22;43.83;101874.53;5026994;28;20061;-72
2022/04/19 09:43:10;;;;;;;2.80;0.65;;;;;;;10.04;45.27;101863.75;5016512;28;20534;-73
2022/04/19 09:45:58;;;;;;;1.58;0.70;;;;;;;9.95;44.69;101857.84;5054734;28;20048;-73
2022/04/19 09:48:33;;;;;;;1.65;0.63;;;;;;;9.84;44.89;101867.78;5020875;28;20129;-73
2022/04/19 09:51:05;;;;;;;0.70;0.70;;;;;;;9.70;45.88;101866.44;5032975;28;20036;-73
2022/04/19 09:53:42;;;;;;;1.80;0.60;;;;;;;9.67;45.36;101867.75;5041524;28;20045;-73
2022/04/19 09:56:10;;;;;;;1.60;0.60;;;;;;;9.73;46.09;101874.19;5044086;28;20037;-74
2022/04/19 09:58:37;;;;;;;0.73;0.50;;;;;;;9.74;45.42;101878.59;5066016;28;20048;-73
2022/04/19 10:01:04;;;;;;;1.00;0.80;;;;;;;9.70;45.63;101869.16;5040129;28;20039;-73
2022/04/19 10:08:59;;;;;;;1.20;0.60;;;;;;;9.67;45.74;101869.66;5022320;28;20631;-73
2022/04/19 10:11:26;;;;;;;0.93;0.38;;;;;;;9.69;45.99;101873.00;5024958;28;20124;-72
2022/04/19 10:13:53;;;;;;;1.25;0.50;;;;;;;9.59;45.84;101895.56;5029444;28;20045;-73
2022/04/19 10:16:19;;;;;;;1.85;0.55;;;;;;;9.45;46.61;101879.66;5029503;28;20087;-74
2022/04/19 10:18:45;;;;;;;15.15;1.42;;;;;;;9.37;46.07;101880.84;5031036;28;20041;-74
2022/04/19 10:21:23;;;;;;;2.83;0.98;;;;;;;9.35;46.17;101881.09;5030379;28;20080;-73
2022/04/19 10:23:49;;;;;;;0.75;0.60;;;;;;;9.33;46.14;101874.19;5028330;28;20045;-73
2022/04/19 10:26:23;;;;;;;7.07;1.00;;;;;;;9.33;46.92;101866.81;5030454;28;20033;-72
2022/04/19 10:28:53;;;;;;;0.80;0.57;;;;;;;9.33;47.17;101860.50;5021240;28;20096;-73
2022/04/19 10:31:30;;;;;;;2.35;0.80;;;;;;;9.41;47.19;101867.53;5015179;28;20038;-73
2022/04/19 10:34:01;;;;;;;2.65;0.70;;;;;;;9.38;47.24;101885.28;5027974;28;20051;-72
2022/04/19 10:36:32;;;;;;;0.50;0.50;;;;;;;9.41;46.98;101865.59;5030719;28;20124;-72
2022/04/19 10:39:14;;;;;;;1.38;0.70;;;;;;;9.40;47.22;101861.22;5043837;28;20524;-72
2022/04/19 10:41:52;;;;;;;1.90;0.55;;;;;;;9.52;46.48;101867.47;5033791;28;20049;-72
2022/04/19 10:44:46;;;;;;;0.98;0.70;;;;;;;9.66;46.72;101859.78;5052306;28;20487;-73
2022/04/19 10:47:23;;;;;;;4.30;0.98;;;;;;;9.77;46.00;101853.44;5053891;28;20048;-73
2022/04/19 10:49:58;;;;;;;4.18;0.57;;;;;;;9.88;46.42;101851.69;5035902;28;20519;-73
2022/04/19 10:52:39;;;;;;;0.50;0.50;;;;;;;9.97;45.82;101853.78;5058547;28;20048;-72
2022/04/19 10:55:18;;;;;;;5.32;0.82;;;;;;;9.91;45.85;101851.22;5033161;28;20042;-72
2022/04/19 10:58:09;;;;;;;1.00;0.63;;;;;;;9.89;45.58;101853.34;5038536;28;20029;-73
2022/04/19 11:00:34;;;;;;;3.70;0.60;;;;;;;9.87;45.87;101845.38;5038506;28;20059;-73
2022/04/19 11:03:11;;;;;;;0.75;0.50;;;;;;;9.86;46.21;101854.66;5051593;28;20038;-75
2022/04/19 11:05:44;;;;;;;0.95;0.80;;;;;;;9.81;45.90;101853.75;5041312;28;20041;-75
2022/04/19 11:08:21;;;;;;;1.38;0.52;;;;;;;9.82;46.15;101842.53;5053708;28;20090;-75
2022/04/19 11:11:20;;;;;;;2.55;0.75;;;;;;;9.80;46.85;101835.66;5054149;28;20041;-75
2022/04/19 11:14:15;;;;;;;1.30;0.60;;;;;;;9.78;46.92;101851.50;5053655;28;20454;-76
2022/04/19 11:16:41;;;;;;;3.00;0.88;;;;;;;9.72;46.37;101850.59;5022350;28;20128;-75
2022/04/19 11:19:16;;;;;;;2.33;0.70;;;;;;;9.69;46.14;101845.59;5039251;28;20122;-76
2022/04/19 11:21:49;;;;;;;2.05;0.40;;;;;;;9.69;47.30;101831.88;5028661;28;20033;-75
2022/04/19 11:24:53;;;;;;;3.35;1.00;;;;;;;9.80;47.27;101835.66;5047428;28;20134;-75
2022/04/19 11:27:19;;;;;;;2.28;0.82;;;;;;;9.84;46.70;101829.41;5012801;28;20050;-75
2022/04/19 11:29:49;;;;;;;3.28;0.60;;;;;;;9.82;46.66;101826.09;5033106;28;20041;-75
2022/04/19 11:32:23;;;;;;;2.35;0.77;;;;;;;9.80;46.53;101827.44;5022908;28;20045;-75
2022/04/19 11:35:01;;;;;;;1.27;0.60;;;;;;;9.75;46.81;101825.44;5032872;28;20053;-75
2022/04/19 11:37:28;;;;;;;0.50;0.50;;;;;;;9.75;46.74;101800.75;5037114;28;20124;-76
2022/04/19 11:48:16;;;;;;;0.45;0.40;;;;;;;9.90;46.53;101816.66;5022117;28;20034;-77
2022/04/19 11:50:42;;;;;;;3.53;0.75;;;;;;;9.84;46.40;101815.72;5028179;28;20037;-74
2022/04/19 11:53:16;;;;;;;2.85;0.63;;;;;;;9.78;46.57;101819.44;5015035;28;20052;-75
2022/04/19 11:55:50;;;;;;;1.25;0.70;;;;;;;9.75;46.83;101808.97;5022625;28;20049;-75
2022/04/19 11:58:16;;;;;;;0.73;0.73;;;;;;;9.78;46.50;101830.41;5025261;28;20044;-75
2022/04/19 12:00:42;;;;;;;0.82;0.70;;;;;;;9.77;46.30;101806.00;5017757;28;20041;-75
2022/04/19 12:03:27;;;;;;;3.20;0.70;;;;;;;9.79;46.53;101814.78;5014802;28;20053;-74
2022/04/19 12:05:54;;;;;;;2.90;1.02;;;;;;;9.80;46.89;101794.53;5029256;28;20045;-77
2022/04/19 12:08:38;;;;;;;3.88;0.80;;;;;;;9.81;46.61;101801.66;5032506;28;20041;-75
2022/04/19 12:11:09;;;;;;;3.00;2.70;;;;;;;9.92;46.07;101811.75;5014980;28;20125;-75
2022/04/19 12:13:35;;;;;;;2.53;2.30;;;;;;;9.85;45.63;101811.06;5031153;28;20049;-76
2022/04/19 12:16:03;;;;;;;4.55;2.38;;;;;;;9.81;46.54;101807.97;5017157;28;20528;-77
2022/04/19 12:18:38;;;;;;;1.00;0.90;;;;;;;9.77;46.42;101806.00;5012259;28;20489;-77